createdAt,value
2019-06-10T00:02:03.454Z,87.30
2019-06-10T00:04:33.039Z,88.30
2019-06-10T00:07:03.835Z,87.50
2019-06-10T00:09:33.247Z,88.30
2019-06-10T00:12:04.365Z,89.50
2019-06-10T00:14:33.309Z,89.10
2019-06-10T00:17:04.463Z,89.30
2019-06-10T00:19:33.338Z,89.30
2019-06-10T00:22:04.087Z,89.30
2019-06-10T00:24:33.393Z,89.40
2019-06-10T00:27:04.346Z,90.00
2019-06-10T00:29:33.433Z,90.30
2019-06-10T00:32:05.387Z,90.70
2019-06-10T00:34:35.123Z,90.70
2019-06-10T00:37:07.247Z,90.70
2019-06-10T00:39:35.337Z,90.60
2019-06-10T00:42:07.548Z,90.60
2019-06-10T00:44:35.381Z,90.90
2019-06-10T00:47:06.631Z,91.20
2019-06-10T00:49:35.415Z,91.10
2019-06-10T00:52:05.856Z,91.00
2019-06-10T00:54:35.429Z,91.30
2019-06-10T00:57:05.556Z,91.40
2019-06-10T00:59:34.835Z,91.40
2019-06-10T01:02:05.048Z,91.70
2019-06-10T01:04:34.838Z,91.90
2019-06-10T01:07:04.406Z,91.80
2019-06-10T01:09:33.721Z,91.70
2019-06-10T01:12:03.063Z,92.00
2019-06-10T01:14:32.220Z,92.30
2019-06-10T01:17:01.423Z,92.60
2019-06-10T01:19:31.072Z,92.70
2019-06-10T01:22:01.599Z,92.90
2019-06-10T01:24:31.532Z,93.20
2019-06-10T01:27:01.325Z,93.30
2019-06-10T01:29:32.300Z,93.40
2019-06-10T01:32:01.774Z,93.80
2019-06-10T01:34:32.099Z,93.50
2019-06-10T01:37:01.540Z,93.50
2019-06-10T01:39:31.063Z,93.60
2019-06-10T01:42:00.658Z,93.50
2019-06-10T01:44:30.961Z,93.70
2019-06-10T01:47:00.967Z,93.60
2019-06-10T01:49:30.829Z,93.50
2019-06-10T01:52:01.605Z,93.70
2019-06-10T01:54:31.687Z,93.60
2019-06-10T01:57:01.598Z,93.40
2019-06-10T01:59:31.400Z,93.20
2019-06-10T02:02:02.227Z,93.10
2019-06-10T02:04:32.048Z,92.90
2019-06-10T02:07:02.435Z,92.70
2019-06-10T02:09:31.684Z,92.60
2019-06-10T02:12:02.262Z,91.70
2019-06-10T02:14:31.972Z,91.30
2019-06-10T02:17:01.394Z,91.50
2019-06-10T02:19:31.251Z,91.30
2019-06-10T02:22:01.279Z,91.10
2019-06-10T02:24:31.787Z,91.10
2019-06-10T02:27:02.066Z,91.00
2019-06-10T02:29:31.247Z,90.70
2019-06-10T02:32:04.339Z,90.40
2019-06-10T02:34:36.655Z,91.00
2019-06-10T02:37:04.701Z,91.10
2019-06-10T02:39:38.480Z,91.10
2019-06-10T02:42:06.109Z,91.10
2019-06-10T02:44:37.681Z,91.30
2019-06-10T02:47:06.128Z,91.50
2019-06-10T02:49:52.766Z,91.90
2019-06-10T02:52:07.785Z,92.20
2019-06-10T02:54:36.964Z,92.90
2019-06-10T02:57:06.115Z,92.90
2019-06-10T02:59:36.328Z,93.50
2019-06-10T03:02:05.891Z,93.10
2019-06-10T03:04:37.707Z,92.80
2019-06-10T03:07:05.923Z,92.90
2019-06-10T03:09:35.877Z,92.60
2019-06-10T03:12:05.241Z,93.40
2019-06-10T03:14:34.475Z,93.90
2019-06-10T03:17:05.309Z,94.90
2019-06-10T03:19:46.897Z,95.50
2019-06-10T03:22:05.319Z,96.20
2019-06-10T03:24:34.593Z,97.00
2019-06-10T03:27:03.762Z,98.00
2019-06-10T03:29:32.943Z,98.30
2019-06-10T03:32:05.086Z,98.50
2019-06-10T03:34:41.247Z,98.70
2019-06-10T03:37:03.850Z,98.60
2019-06-10T03:39:33.029Z,97.90
2019-06-10T03:42:02.311Z,98.10
2019-06-10T03:44:33.077Z,98.00
2019-06-10T03:47:02.818Z,97.80
2019-06-10T03:49:32.286Z,97.50
2019-06-10T03:52:02.496Z,97.80
2019-06-10T03:54:32.535Z,97.60
2019-06-10T03:57:02.797Z,97.90
2019-06-10T03:59:32.500Z,97.70
2019-06-10T04:02:02.317Z,98.00
2019-06-10T04:04:32.815Z,98.30
2019-06-10T04:07:03.813Z,98.10
2019-06-10T04:09:33.113Z,98.10
2019-06-10T04:12:02.442Z,98.30
2019-06-10T04:14:32.729Z,98.30
2019-06-10T04:17:02.674Z,98.00
2019-06-10T04:19:32.786Z,98.50
2019-06-10T04:22:02.589Z,99.30
2019-06-10T04:24:32.666Z,99.60
2019-06-10T04:27:02.831Z,99.90
2019-06-10T04:29:32.897Z,99.90
2019-06-10T04:32:03.076Z,99.90
2019-06-10T04:34:33.510Z,99.90
2019-06-10T04:37:03.124Z,99.90
2019-06-10T04:39:33.726Z,99.90
2019-06-10T04:42:03.059Z,99.90
2019-06-10T04:44:32.970Z,99.90
2019-06-10T04:47:02.846Z,99.90
2019-06-10T04:49:32.762Z,99.90
2019-06-10T04:52:03.065Z,99.90
2019-06-10T04:54:33.282Z,99.90
2019-06-10T04:57:02.756Z,99.90
2019-06-10T04:59:33.722Z,99.90
2019-06-10T05:02:05.530Z,99.90
2019-06-10T05:04:33.645Z,99.90
2019-06-10T05:07:02.800Z,99.90
2019-06-10T05:09:33.498Z,99.70
2019-06-10T05:12:03.970Z,99.70
2019-06-10T05:14:33.549Z,99.60
2019-06-10T05:17:02.971Z,99.50
2019-06-10T05:19:33.741Z,99.10
2019-06-10T05:22:03.315Z,99.30
2019-06-10T05:24:34.418Z,99.50
2019-06-10T05:27:03.428Z,99.60
2019-06-10T05:29:34.248Z,99.10
2019-06-10T05:32:03.638Z,98.60
2019-06-10T05:34:34.669Z,97.80
2019-06-10T05:37:03.726Z,97.90
2019-06-10T05:39:35.065Z,97.80
2019-06-10T05:42:03.771Z,97.80
2019-06-10T05:44:34.615Z,98.50
2019-06-10T05:47:05.415Z,98.20
2019-06-10T05:49:36.219Z,97.90
2019-06-10T05:52:06.733Z,97.60
2019-06-10T05:54:35.926Z,98.70
2019-06-10T05:57:05.115Z,99.00
2019-06-10T05:59:35.912Z,99.10
2019-06-10T06:02:05.345Z,99.10
2019-06-10T06:04:36.017Z,99.30
2019-06-10T06:07:05.824Z,99.00
2019-06-10T06:09:35.394Z,98.90
2019-06-10T06:12:04.733Z,99.20
2019-06-10T06:14:35.610Z,98.30
2019-06-10T06:17:04.799Z,97.80
2019-06-10T06:19:37.316Z,98.50
2019-06-10T06:22:04.849Z,98.00
2019-06-10T06:24:35.571Z,98.00
2019-06-10T06:27:04.957Z,97.70
2019-06-10T06:29:36.620Z,97.70
2019-06-10T06:32:05.053Z,97.50
2019-06-10T06:34:35.829Z,97.30
2019-06-10T06:37:05.080Z,96.90
2019-06-10T06:39:35.509Z,97.10
2019-06-10T06:42:05.120Z,97.20
2019-06-10T06:44:36.450Z,97.60
2019-06-10T06:47:05.272Z,96.90
2019-06-10T06:49:35.834Z,96.20
2019-06-10T06:52:05.309Z,95.70
2019-06-10T06:54:36.163Z,95.50
2019-06-10T06:57:06.599Z,95.10
2019-06-10T06:59:38.622Z,94.60
2019-06-10T07:02:07.683Z,95.30
2019-06-10T07:04:37.457Z,95.90
2019-06-10T07:07:07.903Z,95.30
2019-06-10T07:09:37.421Z,95.30
2019-06-10T07:12:07.822Z,95.70
2019-06-10T07:14:38.826Z,96.00
2019-06-10T07:17:07.886Z,96.00
2019-06-10T07:19:39.538Z,95.40
2019-06-10T07:22:12.487Z,95.00
2019-06-10T07:24:40.668Z,92.90
2019-06-10T07:27:09.664Z,91.80
2019-06-10T07:29:41.420Z,91.80
2019-06-10T07:32:12.412Z,91.50
2019-06-10T07:34:44.974Z,90.00
2019-06-10T07:37:13.070Z,87.30
2019-06-10T07:39:44.966Z,84.90
2019-06-10T07:42:13.593Z,81.90
2019-06-10T07:44:44.029Z,78.60
2019-06-10T07:47:13.850Z,73.30
2019-06-10T07:49:44.282Z,68.20
2019-06-10T07:52:19.390Z,66.40
2019-06-10T07:54:45.380Z,68.10
2019-06-10T07:57:14.686Z,66.80
2019-06-10T07:59:45.828Z,65.10
2019-06-10T08:02:14.720Z,61.70
2019-06-10T08:04:45.867Z,59.90
2019-06-10T08:07:14.764Z,59.30
2019-06-10T08:09:45.620Z,61.10
2019-06-10T08:12:15.959Z,63.90
2019-06-10T08:14:45.758Z,65.00
2019-06-10T08:17:15.152Z,64.30
2019-06-10T08:19:50.444Z,61.90
2019-06-10T08:22:29.933Z,58.60
2019-06-10T08:24:46.049Z,55.40
2019-06-10T08:27:15.214Z,52.80
2019-06-10T08:29:48.039Z,51.00
2019-06-10T08:32:15.297Z,50.20
2019-06-10T08:34:46.361Z,50.50
2019-06-10T08:37:15.496Z,50.40
2019-06-10T08:39:45.989Z,49.30
2019-06-10T08:42:15.530Z,47.40
2019-06-10T08:44:47.248Z,47.20
2019-06-10T08:47:15.595Z,45.40
2019-06-10T08:49:46.289Z,44.40
2019-06-10T08:52:15.647Z,43.20
2019-06-10T08:54:47.985Z,44.30
2019-06-10T08:57:15.679Z,44.90
2019-06-10T08:59:47.469Z,47.40
2019-06-10T09:02:15.715Z,48.50
2019-06-10T09:04:48.495Z,47.80
2019-06-10T09:07:15.721Z,46.10
2019-06-10T09:09:47.238Z,44.50
2019-06-10T09:12:28.674Z,43.30
2019-06-10T09:14:48.448Z,42.70
2019-06-10T09:17:17.602Z,43.30
2019-06-10T09:19:49.195Z,47.90
2019-06-10T09:22:18.977Z,47.90
2019-06-10T09:24:51.020Z,45.30
2019-06-10T09:27:19.061Z,43.00
2019-06-10T09:29:52.112Z,40.80
2019-06-10T09:32:19.097Z,43.10
2019-06-10T09:34:52.282Z,45.70
2019-06-10T09:37:23.220Z,46.60
2019-06-10T09:39:58.930Z,46.00
2019-06-10T09:42:23.936Z,46.70
2019-06-10T09:44:55.586Z,46.20
2019-06-10T09:47:24.090Z,45.00
2019-06-10T09:49:55.616Z,45.60
2019-06-10T09:52:24.330Z,45.70
2019-06-10T09:54:56.799Z,44.00
2019-06-10T09:57:24.457Z,42.30
2019-06-10T09:59:56.375Z,40.20
2019-06-10T10:02:24.530Z,41.00
2019-06-10T10:04:58.064Z,42.00
2019-06-10T10:07:24.621Z,43.30
2019-06-10T10:09:57.239Z,43.30
2019-06-10T10:12:24.641Z,43.10
2019-06-10T10:14:56.372Z,42.10
2019-06-10T10:17:25.777Z,42.00
2019-06-10T10:19:57.064Z,41.40
2019-06-10T10:22:26.884Z,42.50
2019-06-10T10:24:57.181Z,40.40
2019-06-10T10:27:26.503Z,39.70
2019-06-10T10:29:57.462Z,37.70
2019-06-10T10:32:26.547Z,39.20
2019-06-10T10:34:56.359Z,41.20
2019-06-10T10:37:25.931Z,41.90
2019-06-10T10:39:56.616Z,41.80
2019-06-10T10:42:39.160Z,40.50
2019-06-10T10:44:59.168Z,38.90
2019-06-10T10:47:29.374Z,37.40
2019-06-10T10:49:58.546Z,36.40
2019-06-10T10:52:27.748Z,36.10
2019-06-10T10:54:56.971Z,36.70
2019-06-10T10:57:26.218Z,36.70
2019-06-10T10:59:56.228Z,35.50
2019-06-10T11:02:25.594Z,34.30
2019-06-10T11:04:56.907Z,32.90
2019-06-10T11:07:25.623Z,31.50
2019-06-10T11:09:56.686Z,31.00
2019-06-10T11:12:25.670Z,30.90
2019-06-10T11:15:00.465Z,32.20
2019-06-10T11:17:26.176Z,34.10
2019-06-10T11:19:55.943Z,34.00
2019-06-10T11:22:25.223Z,34.20
2019-06-10T11:24:56.534Z,37.10
2019-06-10T11:27:25.254Z,39.70
2019-06-10T11:29:57.349Z,40.40
2019-06-10T11:32:25.267Z,43.00
2019-06-10T11:34:56.960Z,43.30
2019-06-10T11:37:26.337Z,44.10
2019-06-10T11:39:56.489Z,44.40
2019-06-10T11:42:25.941Z,46.10
2019-06-10T11:44:57.923Z,46.50
2019-06-10T11:47:26.082Z,46.60
2019-06-10T11:49:56.501Z,48.90
2019-06-10T11:52:26.129Z,49.60
2019-06-10T11:55:05.580Z,50.60
2019-06-10T11:57:26.215Z,51.10
2019-06-10T11:59:56.588Z,50.30
2019-06-10T12:02:27.281Z,50.20
2019-06-10T12:04:58.901Z,50.90
2019-06-10T12:07:27.742Z,51.00
2019-06-10T12:09:59.246Z,51.20
2019-06-10T12:12:27.769Z,50.70
2019-06-10T12:14:59.302Z,49.20
2019-06-10T12:17:41.742Z,47.60
2019-06-10T12:20:02.559Z,47.70
2019-06-10T12:22:29.512Z,47.80
2019-06-10T12:25:24.963Z,45.80
2019-06-10T12:27:32.866Z,43.80
2019-06-10T12:30:13.081Z,42.90
2019-06-10T12:32:42.575Z,43.70
2019-06-10T12:35:13.702Z,45.60
2019-06-10T12:37:42.939Z,45.50
2019-06-10T12:40:12.855Z,44.70
2019-06-10T12:42:42.077Z,43.00
2019-06-10T12:45:12.764Z,41.80
2019-06-10T12:47:42.532Z,41.60
2019-06-10T12:50:12.202Z,40.00
2019-06-10T12:52:41.942Z,39.80
2019-06-10T12:55:12.530Z,39.70
2019-06-10T12:57:42.853Z,40.80
2019-06-10T13:00:20.549Z,41.50
2019-06-10T13:02:43.409Z,42.30
2019-06-10T13:05:12.719Z,42.40
2019-06-10T13:07:42.934Z,43.30
2019-06-10T13:10:12.608Z,44.00
2019-06-10T13:12:42.924Z,45.60
2019-06-10T13:15:12.378Z,45.20
2019-06-10T13:17:43.931Z,44.60
2019-06-10T13:20:13.572Z,42.30
2019-06-10T13:22:43.796Z,41.20
2019-06-10T13:25:13.486Z,41.10
2019-06-10T13:27:42.897Z,40.50
2019-06-10T13:30:12.284Z,41.20
2019-06-10T13:32:43.424Z,42.00
2019-06-10T13:35:12.576Z,41.90
2019-06-10T13:37:42.879Z,42.10
2019-06-10T13:40:13.244Z,41.30
2019-06-10T13:42:42.503Z,41.30
2019-06-10T13:45:11.714Z,40.70
2019-06-10T13:47:43.039Z,41.30
2019-06-10T13:50:14.405Z,40.80
2019-06-10T13:52:43.840Z,40.00
2019-06-10T13:55:13.619Z,39.30
2019-06-10T13:57:44.788Z,38.10
2019-06-10T14:00:15.514Z,37.90
2019-06-10T14:02:44.692Z,37.50
2019-06-10T14:05:18.360Z,37.30
2019-06-10T14:07:44.972Z,38.20
2019-06-10T14:10:18.148Z,37.90
2019-06-10T14:12:48.858Z,36.30
2019-06-10T14:15:17.126Z,35.10
2019-06-10T14:17:48.167Z,35.90
2019-06-10T14:20:18.382Z,36.90
2019-06-10T14:22:47.624Z,37.40
2019-06-10T14:25:17.154Z,37.60
2019-06-10T14:27:46.604Z,37.00
2019-06-10T14:30:15.809Z,37.10
2019-06-10T14:32:45.065Z,37.30
2019-06-10T14:35:16.296Z,38.00
2019-06-10T14:37:45.184Z,38.30
2019-06-10T14:40:20.862Z,36.50
2019-06-10T14:42:45.271Z,37.30
2019-06-10T14:45:16.615Z,37.20
2019-06-10T14:47:45.366Z,38.00
2019-06-10T14:50:17.424Z,38.70
2019-06-10T14:52:46.788Z,39.20
2019-06-10T14:55:18.397Z,40.60
2019-06-10T14:57:47.084Z,40.30
2019-06-10T15:00:18.154Z,40.60
2019-06-10T15:02:47.222Z,42.00
2019-06-10T15:05:17.574Z,45.00
2019-06-10T15:07:46.937Z,46.60
2019-06-10T15:10:17.815Z,47.80
2019-06-10T15:12:47.169Z,49.30
2019-06-10T15:15:16.341Z,50.40
2019-06-10T15:17:45.494Z,51.10
2019-06-10T15:20:15.730Z,52.00
2019-06-10T15:22:44.997Z,52.50
2019-06-10T15:25:15.904Z,53.30
2019-06-10T15:27:45.061Z,53.90
2019-06-10T15:30:21.569Z,54.60
2019-06-10T15:32:45.131Z,55.10
2019-06-10T15:35:19.440Z,55.40
2019-06-10T15:37:45.166Z,56.00
2019-06-10T15:40:16.666Z,56.60
2019-06-10T15:42:45.238Z,58.00
2019-06-10T15:45:17.631Z,59.40
2019-06-10T15:47:45.353Z,61.00
2019-06-10T15:50:16.095Z,69.70
2019-06-10T15:52:45.390Z,90.90
2019-06-10T15:55:33.622Z,97.00
2019-06-10T15:57:46.457Z,99.90
2019-06-10T16:00:21.847Z,99.90
2019-06-10T16:02:47.917Z,99.90
2019-06-10T16:05:17.804Z,99.90
2019-06-10T16:07:47.901Z,99.90
2019-06-10T16:10:19.636Z,99.90
2019-06-10T16:12:47.930Z,99.90
2019-06-10T16:15:19.473Z,99.90
2019-06-10T16:17:49.307Z,99.90
2019-06-10T16:20:19.420Z,99.90
2019-06-10T16:22:48.686Z,99.90
2019-06-10T16:25:17.884Z,99.90
2019-06-10T16:27:51.021Z,99.90
2019-06-10T16:30:18.190Z,99.90
2019-06-10T16:32:47.415Z,99.90
2019-06-10T16:35:16.840Z,99.90
2019-06-10T16:37:46.107Z,99.90
2019-06-10T16:40:15.276Z,99.90
2019-06-10T16:42:44.523Z,99.90
2019-06-10T16:45:13.698Z,99.90
2019-06-10T16:47:43.176Z,99.90
2019-06-10T16:50:12.773Z,99.90
2019-06-10T16:52:43.121Z,99.90
2019-06-10T16:55:12.835Z,99.90
2019-06-10T16:57:42.153Z,99.90
2019-06-10T17:00:14.465Z,99.90
2019-06-10T17:02:42.755Z,99.90
2019-06-10T17:05:11.992Z,99.90
2019-06-10T17:07:43.366Z,99.90
2019-06-10T17:10:12.652Z,99.90
2019-06-10T17:12:42.644Z,99.90
2019-06-10T17:15:13.025Z,99.90
2019-06-10T17:17:42.325Z,99.90
2019-06-10T17:20:13.129Z,99.90
2019-06-10T17:22:43.475Z,99.90
2019-06-10T17:25:13.081Z,99.90
2019-06-10T17:27:42.372Z,99.90
2019-06-10T17:30:13.198Z,99.90
2019-06-10T17:32:42.697Z,99.90
2019-06-10T17:35:12.620Z,99.90
2019-06-10T17:37:43.207Z,99.90
2019-06-10T17:40:12.940Z,99.90
2019-06-10T17:42:42.823Z,99.90
2019-06-10T17:45:12.819Z,99.90
2019-06-10T17:47:42.728Z,99.90
2019-06-10T17:50:12.619Z,99.90
2019-06-10T17:52:42.669Z,99.90
2019-06-10T17:55:12.617Z,99.90
2019-06-10T17:57:42.948Z,99.90
2019-06-10T18:00:14.915Z,99.90
2019-06-10T18:02:43.213Z,99.90
2019-06-10T18:05:12.830Z,99.90
2019-06-10T18:07:42.216Z,99.90
2019-06-10T18:10:13.226Z,99.90
2019-06-10T18:12:42.394Z,99.90
2019-06-10T18:15:12.529Z,99.90
2019-06-10T18:17:42.982Z,99.90
2019-06-10T18:20:13.533Z,99.90
2019-06-10T18:22:42.902Z,99.90
2019-06-10T18:25:12.401Z,99.90
2019-06-10T18:27:41.721Z,99.90
2019-06-10T18:30:14.155Z,99.90
2019-06-10T18:32:42.979Z,99.90
2019-06-10T18:35:14.323Z,99.90
2019-06-10T18:37:43.188Z,99.90
2019-06-10T18:40:14.486Z,99.90
2019-06-10T18:42:43.239Z,99.90
2019-06-10T18:45:12.966Z,99.90
2019-06-10T18:47:42.410Z,99.90
2019-06-10T18:50:12.694Z,99.90
2019-06-10T18:52:43.386Z,99.90
2019-06-10T18:55:12.650Z,99.90
2019-06-10T18:57:42.614Z,99.90
2019-06-10T19:00:14.693Z,99.90
2019-06-10T19:02:44.086Z,99.90
2019-06-10T19:05:13.428Z,99.90
2019-06-10T19:07:43.029Z,99.90
2019-06-10T19:10:14.941Z,99.90
2019-06-10T19:12:44.144Z,99.90
2019-06-10T19:15:14.160Z,99.90
2019-06-10T19:17:44.450Z,99.90
2019-06-10T19:20:14.272Z,99.90
2019-06-10T19:22:43.432Z,99.90
2019-06-10T19:25:12.817Z,99.90
2019-06-10T19:27:44.265Z,99.90
2019-06-10T19:30:14.688Z,99.90
2019-06-10T19:32:44.439Z,99.90
2019-06-10T19:35:13.752Z,99.90
2019-06-10T19:37:43.198Z,99.90
2019-06-10T19:40:12.600Z,99.90
2019-06-10T19:42:44.529Z,99.90
2019-06-10T19:45:13.986Z,99.90
2019-06-10T19:47:45.564Z,99.90
2019-06-10T19:50:14.390Z,99.90
2019-06-10T19:52:45.341Z,99.90
2019-06-10T19:55:14.422Z,99.90
2019-06-10T19:57:43.753Z,99.90
2019-06-10T20:00:13.069Z,99.90
2019-06-10T20:02:46.554Z,99.90
2019-06-10T20:05:14.385Z,99.90
2019-06-10T20:07:48.447Z,99.90
2019-06-10T20:10:15.170Z,99.90
2019-06-10T20:12:46.639Z,99.90
2019-06-10T20:15:23.567Z,99.90
2019-06-10T20:17:52.836Z,99.90
2019-06-10T20:20:22.813Z,99.90
2019-06-10T20:22:57.126Z,99.90
2019-06-10T20:25:24.259Z,99.90
2019-06-10T20:27:53.505Z,99.90
2019-06-10T20:30:28.397Z,99.90
2019-06-10T20:32:56.102Z,99.90
2019-06-10T20:35:24.566Z,99.90
2019-06-10T20:37:54.254Z,99.90
2019-06-10T20:40:23.550Z,99.90
2019-06-10T20:42:52.762Z,99.90
2019-06-10T20:45:23.248Z,99.90
2019-06-10T20:47:53.276Z,99.90
2019-06-10T20:50:22.807Z,99.90
2019-06-10T20:52:52.515Z,99.90
2019-06-10T20:55:24.796Z,99.90
2019-06-10T20:58:03.016Z,99.90
2019-06-10T21:00:37.110Z,99.90
2019-06-10T21:03:06.458Z,99.90
2019-06-10T21:05:35.611Z,99.90
2019-06-10T21:08:05.381Z,99.90
2019-06-10T21:10:37.796Z,99.90
2019-06-10T21:13:07.083Z,99.90
2019-06-10T21:15:36.679Z,99.90
2019-06-10T21:18:06.203Z,99.90
2019-06-10T21:20:36.661Z,99.90
2019-06-10T21:23:05.975Z,99.90
2019-06-10T21:25:35.236Z,99.90
2019-06-10T21:28:04.443Z,99.90
2019-06-10T21:30:41.309Z,99.90
2019-06-10T21:33:04.647Z,99.90
2019-06-10T21:35:35.521Z,99.90
2019-06-10T21:38:04.771Z,99.90
2019-06-10T21:40:33.922Z,99.90
2019-06-10T21:43:03.239Z,99.90
2019-06-10T21:45:32.923Z,99.90
2019-06-10T21:48:02.589Z,99.90
2019-06-10T21:50:33.320Z,99.90
2019-06-10T21:53:03.353Z,99.90
2019-06-10T21:55:33.684Z,99.90
2019-06-10T21:58:03.845Z,99.90
2019-06-10T22:01:03.281Z,99.90
2019-06-10T22:03:23.432Z,99.90
2019-06-10T22:05:51.981Z,99.90
2019-06-10T22:08:21.234Z,99.90
2019-06-10T22:10:53.182Z,99.90
2019-06-10T22:13:22.394Z,99.90
2019-06-10T22:15:54.787Z,99.90
2019-06-10T22:18:26.681Z,99.90
2019-06-10T22:20:57.699Z,99.90
2019-06-10T22:23:27.030Z,99.90
2019-06-10T22:25:57.655Z,99.90
2019-06-10T22:28:27.098Z,99.90
2019-06-10T22:31:14.636Z,99.90
2019-06-10T22:33:27.234Z,99.90
2019-06-10T22:35:57.445Z,99.90
2019-06-10T22:38:26.794Z,99.90
2019-06-10T22:40:57.044Z,99.90
2019-06-10T22:43:26.381Z,99.90
2019-06-10T22:45:55.978Z,99.90
2019-06-10T22:48:26.508Z,99.90
2019-06-10T22:50:55.734Z,99.90
2019-06-10T22:53:24.891Z,99.90
2019-06-10T22:55:56.194Z,99.90
2019-06-10T22:58:24.903Z,99.90
2019-06-10T23:00:56.214Z,99.90
2019-06-10T23:03:24.920Z,99.90
2019-06-10T23:05:54.421Z,99.90
2019-06-10T23:08:23.818Z,99.90
2019-06-10T23:10:53.732Z,99.90
2019-06-10T23:13:23.849Z,99.90
2019-06-10T23:15:53.973Z,99.90
2019-06-10T23:18:23.866Z,99.90
2019-06-10T23:20:55.827Z,99.90
2019-06-10T23:23:23.866Z,99.90
2019-06-10T23:25:53.792Z,99.90
2019-06-10T23:28:23.090Z,99.90
2019-06-10T23:30:55.303Z,99.90
2019-06-10T23:33:23.130Z,99.90
2019-06-10T23:35:52.657Z,99.90
2019-06-10T23:38:23.587Z,99.90
2019-06-10T23:40:54.700Z,99.90
2019-06-10T23:43:24.041Z,99.90
2019-06-10T23:45:53.289Z,99.90
2019-06-10T23:48:22.871Z,99.90
2019-06-10T23:50:54.054Z,99.90
2019-06-10T23:53:23.357Z,99.90
2019-06-10T23:55:54.555Z,99.90
2019-06-10T23:58:25.240Z,99.90
